Orbital elements of EKRAN 2 DEB
| Launched | 19 September 1977 |
| Flight ended | – |
| Launch site | Tyuratam Missile and Space Center, Kazakhstan (Also known as Baikonur Cosmodrome) |
| Owner | Commonwealth of Independent States (former USSR) |
| NORAD ID | 59988 |
| Date fetched |
Epoch osculation |
Inc. [°] |
Ecc. | RA asc node [hr] |
Arg Peri. [°] |
Mean anom [°] |
Mean motion [rev/day] |
Abs. mag |
| Date fetched |
Epoch osculation |
Inc. [°] |
Ecc. | RA asc node [hr] |
Arg Peri. [°] |
Mean anom [°] |
Mean motion [rev/day] |
Abs. mag |
| 2026 May 05 17:57 | 2026 May 04 09:28:58 | 4.0489 | 0.00468 | 18.1357 | 82.8817 | 186.7710 | 1.00872 | – |
| 2026 May 04 17:57 | 2026 Apr 30 03:55:48 | 4.0588 | 0.00470 | 18.1399 | 82.0586 | 186.7710 | 1.00872 | – |
| 2026 May 03 17:57 | 2026 Apr 30 03:55:48 | 4.0588 | 0.00470 | 18.1399 | 82.0586 | 186.7710 | 1.00872 | – |
| 2026 May 02 17:57 | 2026 Apr 30 03:55:48 | 4.0588 | 0.00470 | 18.1399 | 82.0586 | 186.7710 | 1.00872 | – |
| 2026 May 01 17:56 | 2026 Apr 30 03:55:48 | 4.0588 | 0.00470 | 18.1399 | 82.0586 | 186.7710 | 1.00872 | – |
| 2026 Apr 30 17:56 | 2026 Apr 30 03:55:48 | 4.0588 | 0.00470 | 18.1399 | 82.0586 | 186.7710 | 1.00872 | – |
| 2026 Apr 29 17:57 | 2026 Apr 24 07:32:58 | 4.0737 | 0.00475 | 18.1462 | 80.5653 | 186.7710 | 1.00872 | – |
| 2026 Apr 28 17:56 | 2026 Apr 24 07:32:58 | 4.0737 | 0.00475 | 18.1462 | 80.5653 | 186.7710 | 1.00872 | – |
| 2026 Apr 27 17:58 | 2026 Apr 24 07:32:58 | 4.0737 | 0.00475 | 18.1462 | 80.5653 | 186.7710 | 1.00872 | – |
| 2026 Apr 26 17:58 | 2026 Apr 24 07:32:58 | 4.0737 | 0.00475 | 18.1462 | 80.5653 | 186.7710 | 1.00872 | – |
| 2026 Apr 25 17:58 | 2026 Apr 24 07:32:58 | 4.0737 | 0.00475 | 18.1462 | 80.5653 | 186.7710 | 1.00872 | – |
| 2026 Apr 24 17:59 | 2026 Apr 24 07:32:58 | 4.0737 | 0.00475 | 18.1462 | 80.5653 | 186.7710 | 1.00872 | – |
| 2026 Apr 23 17:57 | 2026 Apr 19 09:25:23 | 4.0883 | 0.00479 | 18.1512 | 79.6188 | 186.7710 | 1.00872 | – |
| 2026 Apr 22 17:57 | 2026 Apr 19 09:25:23 | 4.0883 | 0.00479 | 18.1512 | 79.6188 | 186.7710 | 1.00872 | – |
| 2026 Apr 21 17:57 | 2026 Apr 19 09:25:23 | 4.0883 | 0.00479 | 18.1512 | 79.6188 | 186.7710 | 1.00872 | – |
| 2026 Apr 20 17:57 | 2026 Apr 19 09:25:23 | 4.0883 | 0.00479 | 18.1512 | 79.6188 | 186.7710 | 1.00872 | – |
| 2026 Apr 19 17:58 | 2026 Apr 19 09:25:23 | 4.0883 | 0.00479 | 18.1512 | 79.6188 | 186.7710 | 1.00872 | – |
| 2026 Apr 18 17:56 | 2026 Apr 12 08:26:38 | 4.1073 | 0.00485 | 18.1580 | 78.6521 | 186.7710 | 1.00872 | – |
| 2026 Apr 16 17:57 | 2026 Apr 12 08:26:38 | 4.1073 | 0.00485 | 18.1580 | 78.6521 | 186.7710 | 1.00872 | – |
| 2026 Apr 14 17:57 | 2026 Apr 12 08:26:38 | 4.1073 | 0.00485 | 18.1580 | 78.6521 | 186.7710 | 1.00872 | – |
| 2026 Apr 13 17:57 | 2026 Apr 12 08:26:38 | 4.1073 | 0.00485 | 18.1580 | 78.6521 | 186.7710 | 1.00872 | – |
| 2026 Apr 12 17:57 | 2026 Apr 08 11:29:16 | 4.1168 | 0.00488 | 18.1618 | 77.6987 | 186.7710 | 1.00872 | – |
| 2026 Apr 11 17:57 | 2026 Apr 08 11:29:16 | 4.1168 | 0.00488 | 18.1618 | 77.6987 | 186.7710 | 1.00872 | – |
| 2026 Apr 10 17:58 | 2026 Apr 08 11:29:16 | 4.1168 | 0.00488 | 18.1618 | 77.6987 | 186.7710 | 1.00872 | – |
| 2026 Apr 09 18:01 | 2026 Apr 08 11:29:16 | 4.1168 | 0.00488 | 18.1618 | 77.6987 | 186.7710 | 1.00872 | – |
| 2026 Apr 08 17:57 | 2026 Apr 08 11:29:16 | 4.1168 | 0.00488 | 18.1618 | 77.6987 | 186.7710 | 1.00872 | – |